Sebastian, FL

2:42 PM EST on February 28, 2015 (GMT -0500)
OZWORLD | Change Station
CLOSE
Current Station
Personal Weather Station
Location: Sebastian, FL
Elevation: 21 ft
Nearby Weather Stations

Elev 21 ft 27.80 °N, 80.48 °W | Updated 8 seconds ago

Overcast
Overcast
69.3 °F
Feels Like 69.3 °F
N
2.0
Wind Variable Wind from NE
Gusts 6.0 mph

Today
High -- | Low -- °F
--% Chance of Precip.
Yesterday
High -- | Low -- °F
Precip. -- in
6:47 AM 6:21 PM
Waxing Gibbous, 79% visible
Pressure 30.27 in
Visibility 9.0 miles
Clouds Overcast 1300 ft
Dew Point 68 °F
Humidity 96%
Rainfall 0.15 in
Snow Depth Not available.
UV 3 out of 12
Pollen 10.40 out of 12
Air Quality Not available.
Flu Activity Not available.
METAR KVRB 281853Z COR 07012G21KT 9SM OVC013 22/18 A3028 RMK AO2 SLP251 T02170178

More Conditions Fewer Conditions

Pressure 30.27 in
Visibility 9.0 miles
Clouds Overcast 1300 ft
Dew Point 68 °F
Humidity 96%
Rainfall 0.15 in
Snow Depth Not available.
UV 3 out of 12
Pollen 10.40 out of 12
Air Quality Not available.
Flu Activity Not available.
METAR KVRB 281853Z COR 07012G21KT 9SM OVC013 22/18 A3028 RMK AO2 SLP251 T02170178

More Conditions Fewer Conditions

Nowcast | as of 1:30 PM EST on February 28, 2015

Light to moderate rain will continue to stream northeastward across locations north of a line from Lake Kissimmee to Melbourne while additional areas of light rain and showers will continue to move onshore or linger from Melbourne southward through mid afternoon. Isolated storms will be possible across Martin County and into the Kissimmee area...producing occasional cloud to ground lightning. While heavier rain is ending along Saint Lucie and Martin counties... flooding of area roadways where excessive rainfall occurred earlier today will be slow to subside. Cloud cover will likely hold temperatures over much of the region in the 60s with low 70s across Okeechobee County and the Treasure Coast where some breaks in the clouds may occur. Additional details...including graphics are available online at: http://www.Srh.NOAA.Gov/mlb/blog.Php

×

10-Day Weather Forecast

Almanac

Astronomy

Feb. 28, 2015 Rise Set
Actual Time
Civil Twilight
Nautical Twilight
Astronomical Twilight
Moon
Length of Visible Light
Length of Day
Tomorrow will be .
, % of the Moon is Illuminated

Today's Extremes

State Highs State Lows

Community

WunderPhotos

Upload Photos

1,801,125 photos uploaded!

WunderBlogs® & News

Nearby

Air Quality

  Air Quality AQ Index Pollutant
Not available.

Snow Depth

Station Depth Elevation

Earthquake Activity

City Distance Mag. Time & Date
Minimum magnitude displayed is 2.5.

Coastal Water Temperatures

Place Temperature

Nearby Weather Stations